sensor_id;sensor_type;location;lat;lon;timestamp;P1;durP1;ratioP1;P2;durP2;ratioP2
26191;SDS011;13935;55.672;37.764;2022-11-20T06:16:05;32.08;;;13.85;;
26191;SDS011;13935;55.672;37.764;2022-11-20T06:17:07;35.88;;;16.35;;
26191;SDS011;13935;55.672;37.764;2022-11-20T06:18:09;34.97;;;15.95;;
26191;SDS011;13935;55.672;37.764;2022-11-20T06:19:11;31.80;;;15.65;;
26191;SDS011;13935;55.672;37.764;2022-11-20T06:20:13;33.38;;;15.90;;
26191;SDS011;13935;55.672;37.764;2022-11-20T06:21:16;31.40;;;15.88;;
26191;SDS011;13935;55.672;37.764;2022-11-20T06:22:20;31.83;;;15.32;;
26191;SDS011;13935;55.672;37.764;2022-11-20T06:23:23;32.78;;;16.25;;
26191;SDS011;13935;55.672;37.764;2022-11-20T06:24:25;32.22;;;17.02;;
26191;SDS011;13935;55.672;37.764;2022-11-20T06:25:39;36.63;;;16.85;;
26191;SDS011;13935;55.672;37.764;2022-11-20T06:26:43;34.20;;;18.27;;
26191;SDS011;13935;55.672;37.764;2022-11-20T06:27:48;32.90;;;15.65;;
26191;SDS011;13935;55.672;37.764;2022-11-20T06:28:50;31.83;;;16.30;;
26191;SDS011;13935;55.672;37.764;2022-11-20T06:29:54;30.17;;;16.02;;
26191;SDS011;13935;55.672;37.764;2022-11-20T06:31:04;32.30;;;16.73;;
26191;SDS011;13935;55.672;37.764;2022-11-20T06:32:36;28.02;;;15.52;;
26191;SDS011;13935;55.672;37.764;2022-11-20T06:34:11;30.15;;;16.17;;
26191;SDS011;13935;55.672;37.764;2022-11-20T06:35:36;35.33;;;18.30;;
26191;SDS011;13935;55.672;37.764;2022-11-20T06:39:06;26.20;;;13.82;;
26191;SDS011;13935;55.672;37.764;2022-11-20T06:40:19;30.02;;;15.60;;
26191;SDS011;13935;55.672;37.764;2022-11-20T06:41:57;29.65;;;15.60;;
26191;SDS011;13935;55.672;37.764;2022-11-20T06:43:09;30.40;;;15.45;;
26191;SDS011;13935;55.672;37.764;2022-11-20T06:44:18;33.05;;;15.82;;
26191;SDS011;13935;55.672;37.764;2022-11-20T06:45:52;31.13;;;15.80;;
26191;SDS011;13935;55.672;37.764;2022-11-20T06:47:44;32.20;;;16.55;;
26191;SDS011;13935;55.672;37.764;2022-11-20T06:49:16;30.83;;;15.85;;
26191;SDS011;13935;55.672;37.764;2022-11-20T06:50:20;30.70;;;17.02;;
26191;SDS011;13935;55.672;37.764;2022-11-20T06:51:22;33.13;;;16.75;;
26191;SDS011;13935;55.672;37.764;2022-11-20T06:52:25;29.77;;;16.52;;
26191;SDS011;13935;55.672;37.764;2022-11-20T06:53:28;31.08;;;16.60;;
26191;SDS011;13935;55.672;37.764;2022-11-20T06:54:33;33.38;;;16.30;;
26191;SDS011;13935;55.672;37.764;2022-11-20T06:55:36;33.60;;;17.33;;
26191;SDS011;13935;55.672;37.764;2022-11-20T06:56:39;30.83;;;17.08;;
26191;SDS011;13935;55.672;37.764;2022-11-20T06:57:41;30.00;;;16.83;;
26191;SDS011;13935;55.672;37.764;2022-11-20T06:58:58;31.45;;;17.02;;
26191;SDS011;13935;55.672;37.764;2022-11-20T07:00:06;31.25;;;16.50;;
26191;SDS011;13935;55.672;37.764;2022-11-20T07:01:09;29.25;;;16.25;;
26191;SDS011;13935;55.672;37.764;2022-11-20T07:02:13;30.38;;;16.20;;
26191;SDS011;13935;55.672;37.764;2022-11-20T07:03:24;34.88;;;17.92;;
26191;SDS011;13935;55.672;37.764;2022-11-20T07:04:27;31.00;;;17.13;;
26191;SDS011;13935;55.672;37.764;2022-11-20T07:05:32;44.35;;;22.98;;
26191;SDS011;13935;55.672;37.764;2022-11-20T07:06:37;37.05;;;19.52;;
26191;SDS011;13935;55.672;37.764;2022-11-20T07:07:43;31.23;;;17.83;;
26191;SDS011;13935;55.672;37.764;2022-11-20T07:08:45;32.60;;;17.88;;
26191;SDS011;13935;55.672;37.764;2022-11-20T07:09:49;30.00;;;16.33;;
26191;SDS011;13935;55.672;37.764;2022-11-20T07:10:56;30.70;;;17.05;;
26191;SDS011;13935;55.672;37.764;2022-11-20T07:12:00;32.60;;;17.55;;
26191;SDS011;13935;55.672;37.764;2022-11-20T07:13:02;31.80;;;17.70;;
26191;SDS011;13935;55.672;37.764;2022-11-20T07:14:12;31.40;;;16.42;;
26191;SDS011;13935;55.672;37.764;2022-11-20T07:15:15;32.85;;;17.52;;
26191;SDS011;13935;55.672;37.764;2022-11-20T07:16:18;29.60;;;16.05;;
26191;SDS011;13935;55.672;37.764;2022-11-20T07:17:21;31.77;;;18.38;;
26191;SDS011;13935;55.672;37.764;2022-11-20T07:18:23;30.02;;;16.70;;
26191;SDS011;13935;55.672;37.764;2022-11-20T07:19:25;32.33;;;18.10;;
26191;SDS011;13935;55.672;37.764;2022-11-20T07:20:27;31.30;;;17.20;;
26191;SDS011;13935;55.672;37.764;2022-11-20T07:21:30;32.25;;;17.88;;
26191;SDS011;13935;55.672;37.764;2022-11-20T07:22:33;35.67;;;20.50;;
26191;SDS011;13935;55.672;37.764;2022-11-20T07:23:36;30.17;;;17.23;;
26191;SDS011;13935;55.672;37.764;2022-11-20T07:24:39;30.15;;;16.60;;
26191;SDS011;13935;55.672;37.764;2022-11-20T07:26:06;35.47;;;16.67;;
26191;SDS011;13935;55.672;37.764;2022-11-20T07:27:12;31.25;;;16.98;;
26191;SDS011;13935;55.672;37.764;2022-11-20T07:28:18;35.92;;;18.48;;
26191;SDS011;13935;55.672;37.764;2022-11-20T07:29:21;30.73;;;16.70;;
26191;SDS011;13935;55.672;37.764;2022-11-20T07:30:24;33.53;;;18.13;;
26191;SDS011;13935;55.672;37.764;2022-11-20T07:31:32;31.95;;;17.30;;
26191;SDS011;13935;55.672;37.764;2022-11-20T07:32:38;29.90;;;16.60;;
26191;SDS011;13935;55.672;37.764;2022-11-20T07:33:52;31.65;;;17.50;;
26191;SDS011;13935;55.672;37.764;2022-11-20T07:35:21;31.42;;;17.13;;
26191;SDS011;13935;55.672;37.764;2022-11-20T07:36:59;31.92;;;16.73;;
26191;SDS011;13935;55.672;37.764;2022-11-20T07:38:12;31.13;;;16.88;;
26191;SDS011;13935;55.672;37.764;2022-11-20T07:39:32;33.83;;;16.88;;
26191;SDS011;13935;55.672;37.764;2022-11-20T07:40:34;32.28;;;17.70;;
26191;SDS011;13935;55.672;37.764;2022-11-20T07:41:40;32.38;;;17.65;;
26191;SDS011;13935;55.672;37.764;2022-11-20T07:44:11;29.85;;;17.40;;
26191;SDS011;13935;55.672;37.764;2022-11-20T07:46:26;32.38;;;17.25;;
26191;SDS011;13935;55.672;37.764;2022-11-20T07:47:34;35.03;;;18.77;;
26191;SDS011;13935;55.672;37.764;2022-11-20T07:48:48;35.63;;;18.58;;
26191;SDS011;13935;55.672;37.764;2022-11-20T07:51:23;33.08;;;17.70;;
26191;SDS011;13935;55.672;37.764;2022-11-20T07:52:35;33.63;;;18.10;;
26191;SDS011;13935;55.672;37.764;2022-11-20T07:53:39;34.65;;;18.70;;
26191;SDS011;13935;55.672;37.764;2022-11-20T07:57:10;30.70;;;17.08;;
26191;SDS011;13935;55.672;37.764;2022-11-20T08:02:30;39.70;;;18.08;;
26191;SDS011;13935;55.672;37.764;2022-11-20T08:03:50;32.80;;;17.20;;
26191;SDS011;13935;55.672;37.764;2022-11-20T08:04:55;31.83;;;18.08;;
26191;SDS011;13935;55.672;37.764;2022-11-20T08:06:25;34.42;;;18.02;;
26191;SDS011;13935;55.672;37.764;2022-11-20T08:07:34;31.58;;;17.65;;
26191;SDS011;13935;55.672;37.764;2022-11-20T08:08:42;33.55;;;18.35;;
26191;SDS011;13935;55.672;37.764;2022-11-20T08:09:47;30.55;;;16.77;;
26191;SDS011;13935;55.672;37.764;2022-11-20T08:11:04;33.38;;;18.63;;
26191;SDS011;13935;55.672;37.764;2022-11-20T08:12:27;37.05;;;18.77;;
26191;SDS011;13935;55.672;37.764;2022-11-20T08:14:08;35.47;;;18.13;;
26191;SDS011;13935;55.672;37.764;2022-11-20T08:15:17;33.53;;;18.02;;
26191;SDS011;13935;55.672;37.764;2022-11-20T08:16:20;33.67;;;18.38;;
26191;SDS011;13935;55.672;37.764;2022-11-20T08:17:38;37.35;;;18.85;;
26191;SDS011;13935;55.672;37.764;2022-11-20T08:18:40;31.85;;;17.30;;
26191;SDS011;13935;55.672;37.764;2022-11-20T08:19:42;40.97;;;21.08;;
26191;SDS011;13935;55.672;37.764;2022-11-20T08:26:53;33.67;;;16.52;;
26191;SDS011;13935;55.672;37.764;2022-11-20T08:28:06;32.78;;;17.45;;
26191;SDS011;13935;55.672;37.764;2022-11-20T08:29:22;36.80;;;19.05;;
26191;SDS011;13935;55.672;37.764;2022-11-20T08:30:28;36.03;;;18.33;;
26191;SDS011;13935;55.672;37.764;2022-11-20T08:31:30;34.05;;;18.40;;
26191;SDS011;13935;55.672;37.764;2022-11-20T08:32:34;34.00;;;18.38;;
26191;SDS011;13935;55.672;37.764;2022-11-20T08:33:45;36.05;;;18.73;;
26191;SDS011;13935;55.672;37.764;2022-11-20T08:38:15;37.97;;;19.25;;
26191;SDS011;13935;55.672;37.764;2022-11-20T08:39:23;33.90;;;18.35;;
26191;SDS011;13935;55.672;37.764;2022-11-20T08:40:25;38.20;;;19.45;;
26191;SDS011;13935;55.672;37.764;2022-11-20T08:41:28;35.78;;;19.45;;
26191;SDS011;13935;55.672;37.764;2022-11-20T08:42:33;37.58;;;19.75;;
26191;SDS011;13935;55.672;37.764;2022-11-20T08:43:35;33.58;;;18.88;;
26191;SDS011;13935;55.672;37.764;2022-11-20T08:44:40;35.28;;;19.20;;
26191;SDS011;13935;55.672;37.764;2022-11-20T08:45:47;36.13;;;18.88;;
26191;SDS011;13935;55.672;37.764;2022-11-20T08:46:51;36.47;;;20.50;;
26191;SDS011;13935;55.672;37.764;2022-11-20T08:47:59;35.65;;;18.90;;
26191;SDS011;13935;55.672;37.764;2022-11-20T08:49:04;36.13;;;20.83;;
26191;SDS011;13935;55.672;37.764;2022-11-20T08:50:13;36.13;;;18.92;;
26191;SDS011;13935;55.672;37.764;2022-11-20T08:51:21;35.88;;;18.95;;
26191;SDS011;13935;55.672;37.764;2022-11-20T08:52:31;32.65;;;18.30;;
26191;SDS011;13935;55.672;37.764;2022-11-20T08:53:41;36.45;;;19.38;;
26191;SDS011;13935;55.672;37.764;2022-11-20T08:54:44;35.28;;;19.08;;
26191;SDS011;13935;55.672;37.764;2022-11-20T08:55:48;33.38;;;18.52;;
26191;SDS011;13935;55.672;37.764;2022-11-20T08:56:54;37.65;;;19.30;;
26191;SDS011;13935;55.672;37.764;2022-11-20T08:57:57;32.80;;;19.08;;
26191;SDS011;13935;55.672;37.764;2022-11-20T08:58:59;34.42;;;19.05;;
26191;SDS011;13935;55.672;37.764;2022-11-20T09:00:23;35.17;;;19.73;;
26191;SDS011;13935;55.672;37.764;2022-11-20T09:01:25;35.13;;;19.42;;
26191;SDS011;13935;55.672;37.764;2022-11-20T09:02:28;40.20;;;21.00;;
26191;SDS011;13935;55.672;37.764;2022-11-20T09:03:31;40.95;;;21.83;;
26191;SDS011;13935;55.672;37.764;2022-11-20T09:04:35;37.45;;;20.60;;
26191;SDS011;13935;55.672;37.764;2022-11-20T09:05:38;38.72;;;20.52;;
26191;SDS011;13935;55.672;37.764;2022-11-20T09:06:41;36.58;;;19.73;;
26191;SDS011;13935;55.672;37.764;2022-11-20T09:07:43;39.42;;;20.13;;
26191;SDS011;13935;55.672;37.764;2022-11-20T09:08:46;38.85;;;20.35;;
26191;SDS011;13935;55.672;37.764;2022-11-20T09:09:48;40.22;;;21.17;;
26191;SDS011;13935;55.672;37.764;2022-11-20T09:11:11;37.28;;;19.70;;
26191;SDS011;13935;55.672;37.764;2022-11-20T09:12:14;38.20;;;20.67;;
26191;SDS011;13935;55.672;37.764;2022-11-20T09:13:20;35.83;;;20.10;;
26191;SDS011;13935;55.672;37.764;2022-11-20T09:14:26;37.88;;;20.33;;
26191;SDS011;13935;55.672;37.764;2022-11-20T09:15:31;38.13;;;20.73;;
26191;SDS011;13935;55.672;37.764;2022-11-20T09:17:02;38.28;;;19.85;;
26191;SDS011;13935;55.672;37.764;2022-11-20T09:18:05;38.70;;;19.85;;
26191;SDS011;13935;55.672;37.764;2022-11-20T09:19:09;37.10;;;19.27;;
26191;SDS011;13935;55.672;37.764;2022-11-20T09:20:45;36.78;;;19.00;;
26191;SDS011;13935;55.672;37.764;2022-11-20T09:21:58;37.58;;;20.55;;
26191;SDS011;13935;55.672;37.764;2022-11-20T09:23:22;36.42;;;18.95;;
26191;SDS011;13935;55.672;37.764;2022-11-20T09:24:43;39.58;;;19.38;;
26191;SDS011;13935;55.672;37.764;2022-11-20T09:25:50;39.90;;;20.77;;
26191;SDS011;13935;55.672;37.764;2022-11-20T09:27:10;37.47;;;20.35;;
26191;SDS011;13935;55.672;37.764;2022-11-20T09:28:29;35.72;;;19.05;;
26191;SDS011;13935;55.672;37.764;2022-11-20T09:30:45;37.88;;;19.10;;
26191;SDS011;13935;55.672;37.764;2022-11-20T09:32:08;35.53;;;19.73;;
26191;SDS011;13935;55.672;37.764;2022-11-20T09:33:32;37.88;;;20.10;;
26191;SDS011;13935;55.672;37.764;2022-11-20T09:34:48;38.58;;;20.77;;
26191;SDS011;13935;55.672;37.764;2022-11-20T09:38:08;40.33;;;19.92;;
26191;SDS011;13935;55.672;37.764;2022-11-20T09:39:15;41.47;;;20.83;;
26191;SDS011;13935;55.672;37.764;2022-11-20T09:40:28;45.08;;;21.52;;
26191;SDS011;13935;55.672;37.764;2022-11-20T09:43:26;41.42;;;20.00;;
26191;SDS011;13935;55.672;37.764;2022-11-20T09:52:26;47.90;;;21.85;;
26191;SDS011;13935;55.672;37.764;2022-11-20T09:54:05;48.17;;;21.67;;
26191;SDS011;13935;55.672;37.764;2022-11-20T09:55:19;48.72;;;21.45;;
26191;SDS011;13935;55.672;37.764;2022-11-20T09:56:29;46.20;;;22.52;;
26191;SDS011;13935;55.672;37.764;2022-11-20T09:59:59;49.20;;;22.27;;
26191;SDS011;13935;55.672;37.764;2022-11-20T10:01:30;51.10;;;22.48;;
26191;SDS011;13935;55.672;37.764;2022-11-20T10:02:54;46.10;;;21.90;;
26191;SDS011;13935;55.672;37.764;2022-11-20T10:06:17;46.00;;;21.30;;
26191;SDS011;13935;55.672;37.764;2022-11-20T10:07:55;53.30;;;22.65;;
26191;SDS011;13935;55.672;37.764;2022-11-20T10:10:04;47.35;;;23.00;;
26191;SDS011;13935;55.672;37.764;2022-11-20T10:12:05;50.72;;;22.60;;
26191;SDS011;13935;55.672;37.764;2022-11-20T10:15:31;51.30;;;24.13;;
26191;SDS011;13935;55.672;37.764;2022-11-20T10:18:33;50.83;;;23.48;;
26191;SDS011;13935;55.672;37.764;2022-11-20T10:21:35;53.25;;;25.35;;
26191;SDS011;13935;55.672;37.764;2022-11-20T10:29:18;54.63;;;23.90;;
26191;SDS011;13935;55.672;37.764;2022-11-20T10:30:30;51.55;;;24.60;;
26191;SDS011;13935;55.672;37.764;2022-11-20T10:31:45;56.45;;;25.60;;
26191;SDS011;13935;55.672;37.764;2022-11-20T10:32:52;56.80;;;24.65;;
26191;SDS011;13935;55.672;37.764;2022-11-20T10:37:27;61.00;;;25.88;;
26191;SDS011;13935;55.672;37.764;2022-11-20T10:38:43;56.05;;;26.33;;
26191;SDS011;13935;55.672;37.764;2022-11-20T10:41:28;54.35;;;25.77;;
26191;SDS011;13935;55.672;37.764;2022-11-20T10:42:49;63.08;;;26.42;;
26191;SDS011;13935;55.672;37.764;2022-11-20T10:44:14;58.47;;;25.67;;
26191;SDS011;13935;55.672;37.764;2022-11-20T10:45:48;56.10;;;25.17;;
26191;SDS011;13935;55.672;37.764;2022-11-20T10:47:08;56.80;;;26.55;;
26191;SDS011;13935;55.672;37.764;2022-11-20T10:48:24;60.45;;;25.98;;
26191;SDS011;13935;55.672;37.764;2022-11-20T10:49:33;60.10;;;27.25;;
26191;SDS011;13935;55.672;37.764;2022-11-20T10:50:39;59.60;;;28.13;;
26191;SDS011;13935;55.672;37.764;2022-11-20T10:54:49;60.10;;;26.52;;
26191;SDS011;13935;55.672;37.764;2022-11-20T10:56:55;65.10;;;26.88;;
26191;SDS011;13935;55.672;37.764;2022-11-20T11:00:36;53.33;;;24.88;;
26191;SDS011;13935;55.672;37.764;2022-11-20T11:02:58;59.38;;;22.77;;
26191;SDS011;13935;55.672;37.764;2022-11-20T11:06:15;49.90;;;23.33;;
26191;SDS011;13935;55.672;37.764;2022-11-20T11:07:44;52.83;;;24.48;;
26191;SDS011;13935;55.672;37.764;2022-11-20T11:09:48;48.40;;;23.52;;
26191;SDS011;13935;55.672;37.764;2022-11-20T11:10:57;55.35;;;23.70;;
26191;SDS011;13935;55.672;37.764;2022-11-20T11:12:54;49.95;;;22.45;;
26191;SDS011;13935;55.672;37.764;2022-11-20T11:14:07;55.15;;;24.75;;
26191;SDS011;13935;55.672;37.764;2022-11-20T11:15:27;55.58;;;24.25;;
26191;SDS011;13935;55.672;37.764;2022-11-20T11:16:58;51.45;;;23.90;;
26191;SDS011;13935;55.672;37.764;2022-11-20T11:18:02;54.00;;;27.50;;
26191;SDS011;13935;55.672;37.764;2022-11-20T11:19:12;57.35;;;27.38;;
26191;SDS011;13935;55.672;37.764;2022-11-20T11:20:40;46.70;;;23.55;;
26191;SDS011;13935;55.672;37.764;2022-11-20T11:26:19;52.60;;;23.20;;
26191;SDS011;13935;55.672;37.764;2022-11-20T11:27:32;46.50;;;23.00;;
26191;SDS011;13935;55.672;37.764;2022-11-20T11:30:43;48.70;;;22.75;;
26191;SDS011;13935;55.672;37.764;2022-11-20T11:31:48;45.20;;;21.25;;
26191;SDS011;13935;55.672;37.764;2022-11-20T11:33:18;48.33;;;22.75;;
26191;SDS011;13935;55.672;37.764;2022-11-20T11:34:33;46.03;;;23.40;;
26191;SDS011;13935;55.672;37.764;2022-11-20T11:36:18;45.78;;;22.77;;
26191;SDS011;13935;55.672;37.764;2022-11-20T11:37:33;42.63;;;21.00;;
26191;SDS011;13935;55.672;37.764;2022-11-20T11:40:15;49.58;;;23.58;;
26191;SDS011;13935;55.672;37.764;2022-11-20T11:41:35;44.50;;;23.38;;
26191;SDS011;13935;55.672;37.764;2022-11-20T11:42:44;46.40;;;24.30;;
26191;SDS011;13935;55.672;37.764;2022-11-20T11:43:53;46.53;;;22.35;;
26191;SDS011;13935;55.672;37.764;2022-11-20T11:45:20;43.78;;;20.52;;
26191;SDS011;13935;55.672;37.764;2022-11-20T11:47:44;40.92;;;21.35;;
26191;SDS011;13935;55.672;37.764;2022-11-20T11:49:00;43.75;;;21.58;;
26191;SDS011;13935;55.672;37.764;2022-11-20T11:50:29;46.05;;;22.20;;
26191;SDS011;13935;55.672;37.764;2022-11-20T11:53:13;43.53;;;21.27;;
26191;SDS011;13935;55.672;37.764;2022-11-20T11:54:45;41.90;;;21.60;;
26191;SDS011;13935;55.672;37.764;2022-11-20T11:56:15;40.92;;;21.73;;
26191;SDS011;13935;55.672;37.764;2022-11-20T11:58:52;43.03;;;20.70;;
26191;SDS011;13935;55.672;37.764;2022-11-20T12:01:00;40.28;;;19.48;;
26191;SDS011;13935;55.672;37.764;2022-11-20T12:02:31;34.65;;;19.00;;
26191;SDS011;13935;55.672;37.764;2022-11-20T12:06:05;42.67;;;18.40;;
26191;SDS011;13935;55.672;37.764;2022-11-20T12:07:39;39.50;;;19.50;;
26191;SDS011;13935;55.672;37.764;2022-11-20T12:08:53;34.53;;;18.48;;
26191;SDS011;13935;55.672;37.764;2022-11-20T12:10:12;38.78;;;19.20;;
26191;SDS011;13935;55.672;37.764;2022-11-20T12:15:44;33.88;;;18.02;;
26191;SDS011;13935;55.672;37.764;2022-11-20T12:16:57;36.35;;;17.65;;
26191;SDS011;13935;55.672;37.764;2022-11-20T12:18:02;37.95;;;17.88;;
26191;SDS011;13935;55.672;37.764;2022-11-20T12:19:12;38.67;;;18.65;;
26191;SDS011;13935;55.672;37.764;2022-11-20T12:20:17;32.65;;;19.70;;
26191;SDS011;13935;55.672;37.764;2022-11-20T12:21:43;37.38;;;19.20;;
26191;SDS011;13935;55.672;37.764;2022-11-20T12:23:27;31.40;;;17.40;;
26191;SDS011;13935;55.672;37.764;2022-11-20T12:30:01;35.08;;;17.98;;
26191;SDS011;13935;55.672;37.764;2022-11-20T12:46:43;33.53;;;16.98;;
26191;SDS011;13935;55.672;37.764;2022-11-20T12:48:19;31.20;;;16.73;;
26191;SDS011;13935;55.672;37.764;2022-11-20T12:53:08;31.02;;;16.63;;
26191;SDS011;13935;55.672;37.764;2022-11-20T12:57:50;31.38;;;16.95;;
26191;SDS011;13935;55.672;37.764;2022-11-20T13:00:49;31.10;;;17.25;;
26191;SDS011;13935;55.672;37.764;2022-11-20T13:02:08;29.77;;;16.30;;
26191;SDS011;13935;55.672;37.764;2022-11-20T13:06:20;29.30;;;16.00;;
26191;SDS011;13935;55.672;37.764;2022-11-20T13:07:31;30.08;;;17.83;;
26191;SDS011;13935;55.672;37.764;2022-11-20T13:08:40;28.35;;;17.15;;
26191;SDS011;13935;55.672;37.764;2022-11-20T13:09:46;31.65;;;17.80;;
26191;SDS011;13935;55.672;37.764;2022-11-20T13:11:08;29.70;;;17.13;;
26191;SDS011;13935;55.672;37.764;2022-11-20T13:18:47;28.88;;;16.23;;
26191;SDS011;13935;55.672;37.764;2022-11-20T13:19:55;26.90;;;15.05;;
26191;SDS011;13935;55.672;37.764;2022-11-20T13:21:15;30.50;;;16.23;;
26191;SDS011;13935;55.672;37.764;2022-11-20T13:22:43;35.17;;;17.40;;
26191;SDS011;13935;55.672;37.764;2022-11-20T13:24:32;25.77;;;15.20;;
26191;SDS011;13935;55.672;37.764;2022-11-20T13:25:41;30.33;;;16.33;;
26191;SDS011;13935;55.672;37.764;2022-11-20T13:26:46;30.45;;;16.95;;
26191;SDS011;13935;55.672;37.764;2022-11-20T13:27:53;30.48;;;16.38;;
26191;SDS011;13935;55.672;37.764;2022-11-20T13:29:26;30.58;;;17.15;;
26191;SDS011;13935;55.672;37.764;2022-11-20T13:30:51;32.08;;;17.05;;
26191;SDS011;13935;55.672;37.764;2022-11-20T13:32:15;30.17;;;16.48;;
26191;SDS011;13935;55.672;37.764;2022-11-20T13:33:31;31.58;;;16.25;;
26191;SDS011;13935;55.672;37.764;2022-11-20T13:34:39;27.33;;;15.90;;
26191;SDS011;13935;55.672;37.764;2022-11-20T13:36:02;31.33;;;17.08;;
26191;SDS011;13935;55.672;37.764;2022-11-20T13:37:23;28.90;;;16.42;;
26191;SDS011;13935;55.672;37.764;2022-11-20T13:38:44;28.50;;;16.60;;
26191;SDS011;13935;55.672;37.764;2022-11-20T13:40:05;26.75;;;15.55;;
26191;SDS011;13935;55.672;37.764;2022-11-20T13:41:22;30.55;;;16.00;;
26191;SDS011;13935;55.672;37.764;2022-11-20T13:42:55;25.88;;;15.73;;
26191;SDS011;13935;55.672;37.764;2022-11-20T13:45:27;29.13;;;16.10;;
26191;SDS011;13935;55.672;37.764;2022-11-20T13:46:49;30.02;;;15.48;;
26191;SDS011;13935;55.672;37.764;2022-11-20T13:48:15;27.80;;;15.27;;
26191;SDS011;13935;55.672;37.764;2022-11-20T13:49:31;28.10;;;16.27;;
26191;SDS011;13935;55.672;37.764;2022-11-20T13:50:56;30.90;;;17.05;;
26191;SDS011;13935;55.672;37.764;2022-11-20T14:01:23;29.65;;;16.08;;
26191;SDS011;13935;55.672;37.764;2022-11-20T14:03:09;30.25;;;15.63;;
26191;SDS011;13935;55.672;37.764;2022-11-20T14:05:02;30.40;;;15.73;;
26191;SDS011;13935;55.672;37.764;2022-11-20T14:06:15;27.70;;;16.38;;
26191;SDS011;13935;55.672;37.764;2022-11-20T14:07:38;32.03;;;16.67;;
26191;SDS011;13935;55.672;37.764;2022-11-20T14:08:48;30.10;;;15.85;;
26191;SDS011;13935;55.672;37.764;2022-11-20T14:09:55;30.45;;;17.05;;
26191;SDS011;13935;55.672;37.764;2022-11-20T14:11:14;31.65;;;17.55;;
26191;SDS011;13935;55.672;37.764;2022-11-20T14:12:33;29.23;;;16.13;;
26191;SDS011;13935;55.672;37.764;2022-11-20T14:13:57;26.83;;;15.30;;
26191;SDS011;13935;55.672;37.764;2022-11-20T14:15:22;27.58;;;16.30;;
26191;SDS011;13935;55.672;37.764;2022-11-20T14:16:31;29.55;;;16.20;;
26191;SDS011;13935;55.672;37.764;2022-11-20T14:17:49;30.88;;;17.13;;
26191;SDS011;13935;55.672;37.764;2022-11-20T14:20:27;28.50;;;16.40;;
26191;SDS011;13935;55.672;37.764;2022-11-20T14:22:06;31.30;;;17.80;;
26191;SDS011;13935;55.672;37.764;2022-11-20T14:24:12;32.25;;;16.50;;
26191;SDS011;13935;55.672;37.764;2022-11-20T14:25:21;39.35;;;19.02;;
26191;SDS011;13935;55.672;37.764;2022-11-20T14:26:28;29.23;;;16.20;;
26191;SDS011;13935;55.672;37.764;2022-11-20T14:27:34;29.67;;;16.30;;
26191;SDS011;13935;55.672;37.764;2022-11-20T14:28:39;27.40;;;16.02;;
26191;SDS011;13935;55.672;37.764;2022-11-20T14:29:41;29.83;;;16.48;;
26191;SDS011;13935;55.672;37.764;2022-11-20T14:30:48;30.60;;;16.63;;
26191;SDS011;13935;55.672;37.764;2022-11-20T14:31:55;31.10;;;17.80;;
26191;SDS011;13935;55.672;37.764;2022-11-20T14:33:01;30.00;;;16.83;;
26191;SDS011;13935;55.672;37.764;2022-11-20T14:34:05;28.95;;;15.90;;
26191;SDS011;13935;55.672;37.764;2022-11-20T14:35:09;27.17;;;15.85;;
26191;SDS011;13935;55.672;37.764;2022-11-20T14:36:22;31.73;;;16.23;;
26191;SDS011;13935;55.672;37.764;2022-11-20T14:37:26;30.25;;;16.10;;
26191;SDS011;13935;55.672;37.764;2022-11-20T14:38:33;29.70;;;15.52;;
26191;SDS011;13935;55.672;37.764;2022-11-20T14:39:37;29.58;;;15.63;;
26191;SDS011;13935;55.672;37.764;2022-11-20T14:40:42;34.22;;;18.05;;
26191;SDS011;13935;55.672;37.764;2022-11-20T14:41:51;76.85;;;37.97;;
26191;SDS011;13935;55.672;37.764;2022-11-20T14:42:55;89.53;;;44.28;;
26191;SDS011;13935;55.672;37.764;2022-11-20T14:43:58;90.72;;;45.00;;
26191;SDS011;13935;55.672;37.764;2022-11-20T14:45:03;97.30;;;45.03;;
26191;SDS011;13935;55.672;37.764;2022-11-20T14:46:09;87.68;;;43.00;;
26191;SDS011;13935;55.672;37.764;2022-11-20T14:47:15;85.93;;;42.08;;
26191;SDS011;13935;55.672;37.764;2022-11-20T14:48:28;77.07;;;40.00;;
26191;SDS011;13935;55.672;37.764;2022-11-20T14:49:34;87.88;;;43.45;;
26191;SDS011;13935;55.672;37.764;2022-11-20T14:50:37;91.65;;;46.03;;
26191;SDS011;13935;55.672;37.764;2022-11-20T14:51:40;91.22;;;45.13;;
26191;SDS011;13935;55.672;37.764;2022-11-20T14:52:56;95.30;;;46.22;;
26191;SDS011;13935;55.672;37.764;2022-11-20T14:54:16;91.75;;;43.17;;
26191;SDS011;13935;55.672;37.764;2022-11-20T14:55:35;103.03;;;46.42;;
26191;SDS011;13935;55.672;37.764;2022-11-20T14:56:39;95.22;;;47.92;;
26191;SDS011;13935;55.672;37.764;2022-11-20T14:57:42;93.22;;;44.50;;
26191;SDS011;13935;55.672;37.764;2022-11-20T14:58:44;91.80;;;44.25;;
26191;SDS011;13935;55.672;37.764;2022-11-20T15:00:04;84.20;;;42.20;;
26191;SDS011;13935;55.672;37.764;2022-11-20T15:01:13;98.65;;;46.05;;
26191;SDS011;13935;55.672;37.764;2022-11-20T15:02:16;95.47;;;46.20;;
26191;SDS011;13935;55.672;37.764;2022-11-20T15:03:18;95.15;;;43.38;;
26191;SDS011;13935;55.672;37.764;2022-11-20T15:04:21;100.07;;;47.65;;
26191;SDS011;13935;55.672;37.764;2022-11-20T15:07:03;93.90;;;45.15;;
26191;SDS011;13935;55.672;37.764;2022-11-20T15:08:07;103.30;;;47.45;;
26191;SDS011;13935;55.672;37.764;2022-11-20T15:09:13;85.35;;;41.70;;
26191;SDS011;13935;55.672;37.764;2022-11-20T15:10:24;82.95;;;40.70;;
26191;SDS011;13935;55.672;37.764;2022-11-20T15:11:34;79.63;;;39.42;;
26191;SDS011;13935;55.672;37.764;2022-11-20T15:12:38;109.03;;;50.08;;
26191;SDS011;13935;55.672;37.764;2022-11-20T15:13:47;92.40;;;44.55;;
26191;SDS011;13935;55.672;37.764;2022-11-20T15:14:49;80.93;;;40.75;;
26191;SDS011;13935;55.672;37.764;2022-11-20T15:15:53;76.40;;;37.80;;
26191;SDS011;13935;55.672;37.764;2022-11-20T15:16:57;92.57;;;43.65;;
26191;SDS011;13935;55.672;37.764;2022-11-20T15:18:01;84.63;;;38.65;;
26191;SDS011;13935;55.672;37.764;2022-11-20T15:19:04;89.95;;;43.28;;
26191;SDS011;13935;55.672;37.764;2022-11-20T15:20:19;79.05;;;37.35;;
26191;SDS011;13935;55.672;37.764;2022-11-20T15:21:25;75.40;;;35.97;;
26191;SDS011;13935;55.672;37.764;2022-11-20T15:22:27;82.70;;;39.45;;
26191;SDS011;13935;55.672;37.764;2022-11-20T15:23:29;79.47;;;39.92;;
26191;SDS011;13935;55.672;37.764;2022-11-20T15:24:33;90.13;;;41.47;;
26191;SDS011;13935;55.672;37.764;2022-11-20T15:25:40;104.35;;;46.10;;
26191;SDS011;13935;55.672;37.764;2022-11-20T15:26:42;85.68;;;40.85;;
26191;SDS011;13935;55.672;37.764;2022-11-20T15:27:45;76.65;;;37.42;;
26191;SDS011;13935;55.672;37.764;2022-11-20T15:31:38;67.32;;;32.05;;
26191;SDS011;13935;55.672;37.764;2022-11-20T15:32:57;65.45;;;32.42;;
26191;SDS011;13935;55.672;37.764;2022-11-20T15:34:02;68.20;;;33.42;;
26191;SDS011;13935;55.672;37.764;2022-11-20T15:36:48;98.72;;;42.72;;
26191;SDS011;13935;55.672;37.764;2022-11-20T15:37:54;125.43;;;54.95;;
26191;SDS011;13935;55.672;37.764;2022-11-20T15:39:00;100.57;;;44.95;;